Time;durP1;ratioP1;P1;durP2;ratioP2;P2;SDS_P1;SDS_P2;PMS_P1;PMS_P2;Temp;Humidity;BMP_temperature;BMP_pressure;BME280_temperature;BME280_humidity;BME280_pressure;Samples;Min_cycle;Max_cycle;Signal;HPM_P1;HPM_P2
2021/11/16 00:01:10;;;;;;;65.43;29.67;;;6.40;85.60;;;;;;5073438;28;20111;-49
2021/11/16 00:03:36;;;;;;;74.90;29.92;;;6.50;85.80;;;;;;5072190;28;20024;-47
2021/11/16 00:06:02;;;;;;;74.18;31.55;;;6.50;85.70;;;;;;5073478;28;20116;-46
2021/11/16 00:08:28;;;;;;;64.72;29.40;;;6.40;85.70;;;;;;5073429;28;20452;-47
2021/11/16 00:10:54;;;;;;;70.07;31.00;;;6.40;85.90;;;;;;5073242;28;20025;-46
2021/11/16 00:13:20;;;;;;;67.85;29.95;;;6.50;85.80;;;;;;5073219;28;20040;-48
2021/11/16 00:15:46;;;;;;;72.28;30.60;;;6.50;86.00;;;;;;5073485;28;20029;-49
2021/11/16 00:18:13;;;;;;;66.43;29.10;;;6.50;85.90;;;;;;5073381;28;20024;-49
2021/11/16 00:20:43;;;;;;;70.03;31.35;;;6.50;85.90;;;;;;5073761;28;20081;-47
2021/11/16 00:23:16;;;;;;;75.45;33.33;;;6.40;85.80;;;;;;5073633;28;20025;-47
2021/11/16 00:25:42;;;;;;;78.75;32.78;;;6.50;86.10;;;;;;5073353;28;20032;-48
2021/11/16 00:28:08;;;;;;;75.13;33.92;;;6.40;85.80;;;;;;5073028;28;20029;-49
2021/11/16 00:30:34;;;;;;;74.93;33.88;;;6.40;86.00;;;;;;5073054;28;20089;-48
2021/11/16 00:32:59;;;;;;;74.18;32.78;;;6.40;86.00;;;;;;5073077;28;20032;-48
2021/11/16 00:35:25;;;;;;;68.15;29.92;;;6.40;86.40;;;;;;5072750;28;20115;-50
2021/11/16 00:37:51;;;;;;;74.20;33.83;;;6.40;86.30;;;;;;5072998;28;20424;-49
2021/11/16 00:40:19;;;;;;;77.10;34.75;;;6.50;86.10;;;;;;5072789;28;20103;-49
2021/11/16 00:42:47;;;;;;;70.28;32.22;;;6.50;86.10;;;;;;5073084;28;20021;-49
2021/11/16 00:45:14;;;;;;;72.00;30.40;;;6.60;85.70;;;;;;5073090;28;20045;-50
2021/11/16 00:47:41;;;;;;;68.68;30.70;;;6.50;86.00;;;;;;5072974;28;20116;-49
2021/11/16 00:50:08;;;;;;;67.68;31.10;;;6.50;86.10;;;;;;5073065;28;20040;-49
2021/11/16 00:52:35;;;;;;;73.18;32.15;;;6.50;86.10;;;;;;5073069;28;20021;-49
2021/11/16 00:55:00;;;;;;;73.50;33.70;;;6.50;86.20;;;;;;5072870;28;20020;-52
2021/11/16 00:57:26;;;;;;;59.95;29.98;;;6.60;86.00;;;;;;5073190;28;20016;-48
2021/11/16 00:59:52;;;;;;;65.80;30.38;;;6.60;85.80;;;;;;5073012;28;20105;-52
2021/11/16 01:02:18;;;;;;;63.40;28.30;;;6.70;85.40;;;;;;5072995;28;20098;-50
2021/11/16 01:04:51;;;;;;;58.17;29.70;;;6.50;85.60;;;;;;5073033;28;20024;-49
2021/11/16 01:07:18;;;;;;;62.00;29.52;;;6.60;85.60;;;;;;5072533;28;20538;-48
2021/11/16 01:09:45;;;;;;;67.40;30.10;;;6.50;85.60;;;;;;5072893;28;20046;-47
2021/11/16 01:12:13;;;;;;;68.47;31.05;;;6.60;85.50;;;;;;5072716;28;20028;-49
2021/11/16 01:14:40;;;;;;;75.50;33.65;;;6.60;85.70;;;;;;5072792;28;20033;-49
2021/11/16 01:17:06;;;;;;;66.13;31.80;;;6.70;85.60;;;;;;5072701;28;20477;-48
2021/11/16 01:19:32;;;;;;;71.55;31.15;;;6.70;85.40;;;;;;5072471;28;20039;-48
2021/11/16 01:21:58;;;;;;;65.93;28.83;;;6.50;85.80;;;;;;5072374;28;20020;-48
2021/11/16 01:24:24;;;;;;;63.75;31.20;;;6.60;85.40;;;;;;5072727;28;20031;-48
2021/11/16 01:26:50;;;;;;;66.40;30.35;;;6.70;85.70;;;;;;5072386;28;20476;-47
2021/11/16 01:29:18;;;;;;;61.78;30.00;;;6.70;85.20;;;;;;5072732;28;20028;-49
2021/11/16 01:31:44;;;;;;;74.60;31.90;;;6.60;85.40;;;;;;5072613;28;20028;-47
2021/11/16 01:34:11;;;;;;;61.15;27.50;;;6.70;85.20;;;;;;5072282;28;20036;-47
2021/11/16 01:36:37;;;;;;;66.22;31.05;;;6.50;85.80;;;;;;5072267;28;20063;-49
2021/11/16 01:39:04;;;;;;;70.57;32.70;;;6.30;86.30;;;;;;5072480;28;20496;-47
2021/11/16 01:41:31;;;;;;;69.88;33.35;;;6.40;86.40;;;;;;5072147;28;20025;-49
2021/11/16 01:44:00;;;;;;;68.30;30.88;;;6.40;86.40;;;;;;5072202;28;20035;-47
2021/11/16 01:46:25;;;;;;;68.25;30.65;;;6.50;86.40;;;;;;5072793;28;20033;-49
2021/11/16 01:48:55;;;;;;;77.15;32.35;;;6.50;86.10;;;;;;5076053;28;20358;-49
2021/11/16 01:51:23;;;;;;;70.43;30.08;;;6.50;86.00;;;;;;5076182;28;20052;-48
2021/11/16 01:53:56;;;;;;;71.20;32.55;;;6.50;86.30;;;;;;5075950;28;20307;-50
2021/11/16 01:56:22;;;;;;;87.78;33.10;;;6.50;86.00;;;;;;5075907;28;20023;-48
2021/11/16 01:58:48;;;;;;;65.82;30.45;;;6.50;86.00;;;;;;5075960;28;20384;-48
2021/11/16 02:01:14;;;;;;;64.20;29.55;;;6.50;86.10;;;;;;5075428;28;20032;-47
2021/11/16 02:03:40;;;;;;;62.80;29.38;;;6.40;86.10;;;;;;5075496;28;20020;-50
2021/11/16 02:06:24;;;;;;;61.05;27.23;;;6.50;86.30;;;;;;5075280;28;20037;-47
2021/11/16 02:08:52;;;;;;;57.65;26.30;;;6.60;85.80;;;;;;5075764;28;20021;-47
2021/11/16 02:11:18;;;;;;;57.05;25.60;;;6.40;85.90;;;;;;5075391;28;20123;-48
2021/11/16 02:13:45;;;;;;;60.72;26.92;;;6.40;86.10;;;;;;5075280;28;20093;-47
2021/11/16 02:16:12;;;;;;;58.22;27.20;;;6.40;86.10;;;;;;5075221;28;20546;-49
2021/11/16 02:18:38;;;;;;;55.20;24.23;;;6.30;86.40;;;;;;5075292;28;20048;-47
2021/11/16 02:21:05;;;;;;;54.38;26.08;;;6.40;86.60;;;;;;5075591;28;20040;-49
2021/11/16 02:23:32;;;;;;;52.95;25.77;;;6.40;86.20;;;;;;5075129;28;20191;-48
2021/11/16 02:25:59;;;;;;;54.58;26.50;;;6.30;86.60;;;;;;5075000;28;20024;-49
2021/11/16 02:28:24;;;;;;;47.78;24.50;;;6.30;86.80;;;;;;5075781;28;20107;-47
2021/11/16 02:30:50;;;;;;;60.75;27.20;;;6.50;86.30;;;;;;5075243;28;20103;-48
2021/11/16 02:33:17;;;;;;;58.67;27.83;;;6.50;86.20;;;;;;5075088;28;20025;-48
2021/11/16 02:35:44;;;;;;;55.90;26.85;;;6.60;86.00;;;;;;5075140;28;20035;-50
2021/11/16 02:38:10;;;;;;;60.55;25.55;;;6.60;85.80;;;;;;5075583;28;20044;-52
2021/11/16 02:40:36;;;;;;;55.42;25.45;;;6.50;86.00;;;;;;5075211;28;20032;-48
2021/11/16 02:43:02;;;;;;;45.72;21.95;;;6.40;86.30;;;;;;5075307;28;20350;-47
2021/11/16 02:45:27;;;;;;;51.17;24.70;;;6.50;86.00;;;;;;5073654;28;20024;-47
2021/11/16 02:47:53;;;;;;;48.22;24.48;;;6.50;86.00;;;;;;5075040;28;20034;-47
2021/11/16 02:50:20;;;;;;;49.40;22.30;;;6.40;86.00;;;;;;5074930;28;20032;-48
2021/11/16 02:52:46;;;;;;;54.78;23.27;;;6.30;86.30;;;;;;5075211;28;20052;-50
2021/11/16 02:55:12;;;;;;;49.88;22.85;;;6.30;86.40;;;;;;5075041;28;20043;-51
2021/11/16 02:57:37;;;;;;;46.92;22.17;;;6.40;86.40;;;;;;5074564;28;20109;-48
2021/11/16 03:00:11;;;;;;;43.63;21.63;;;6.40;86.60;;;;;;5074711;28;20024;-51
2021/11/16 03:02:39;;;;;;;47.47;24.35;;;6.50;86.10;;;;;;5073502;28;20054;-48
2021/11/16 03:05:05;;;;;;;46.85;21.83;;;6.40;85.70;;;;;;5074851;28;20108;-49
2021/11/16 03:07:34;;;;;;;50.72;24.33;;;6.40;85.80;;;;;;5074195;28;20049;-47
2021/11/16 03:10:00;;;;;;;50.28;22.65;;;6.50;85.90;;;;;;5074886;28;20024;-48
2021/11/16 03:12:28;;;;;;;50.78;24.08;;;6.40;86.20;;;;;;5074544;28;20013;-47
2021/11/16 03:14:54;;;;;;;49.05;25.48;;;6.40;86.30;;;;;;5074474;28;20025;-47
2021/11/16 03:17:19;;;;;;;52.58;24.10;;;6.40;85.90;;;;;;5074582;28;20025;-48
2021/11/16 03:19:45;;;;;;;54.55;23.48;;;6.30;86.40;;;;;;5074436;28;20021;-48
2021/11/16 03:22:11;;;;;;;43.60;21.27;;;6.40;86.20;;;;;;5074547;28;20025;-47
2021/11/16 03:24:37;;;;;;;46.28;23.27;;;6.50;85.70;;;;;;5074430;28;20028;-47
2021/11/16 03:27:08;;;;;;;49.50;24.23;;;6.50;85.90;;;;;;5075234;28;20069;-46
2021/11/16 03:29:37;;;;;;;51.17;24.48;;;6.30;86.20;;;;;;5074756;28;20016;-51
2021/11/16 03:32:09;;;;;;;51.45;23.60;;;6.30;86.50;;;;;;5074566;28;20031;-46
2021/11/16 03:34:35;;;;;;;51.33;25.15;;;6.20;86.70;;;;;;5074268;28;20016;-47
2021/11/16 03:37:03;;;;;;;49.45;24.52;;;6.30;86.80;;;;;;5073991;28;20044;-48
2021/11/16 03:39:30;;;;;;;53.15;25.98;;;6.30;86.90;;;;;;5074954;28;20028;-48
2021/11/16 03:41:56;;;;;;;61.95;26.52;;;6.30;86.70;;;;;;5073646;28;20021;-48
2021/11/16 03:44:22;;;;;;;55.78;27.75;;;6.20;86.80;;;;;;5074161;28;20036;-48
2021/11/16 03:46:48;;;;;;;51.72;25.92;;;6.20;87.40;;;;;;5073832;28;20047;-50
2021/11/16 03:49:14;;;;;;;51.95;25.60;;;6.30;86.90;;;;;;5073790;28;20035;-48
2021/11/16 03:51:47;;;;;;;61.70;28.23;;;6.30;87.00;;;;;;5073718;28;20048;-48
2021/11/16 03:54:14;;;;;;;53.40;26.73;;;6.30;87.10;;;;;;5073921;28;20337;-49
2021/11/16 03:56:40;;;;;;;50.97;23.40;;;6.30;87.20;;;;;;5073557;28;20035;-48
2021/11/16 03:59:06;;;;;;;52.03;25.50;;;6.30;87.00;;;;;;5073827;28;20040;-51
2021/11/16 04:01:32;;;;;;;55.15;25.40;;;6.30;86.60;;;;;;5073468;28;20131;-48
2021/11/16 04:04:00;;;;;;;55.17;26.48;;;6.20;87.30;;;;;;5073490;28;20021;-47
2021/11/16 04:06:26;;;;;;;51.45;23.67;;;6.20;87.30;;;;;;5073618;28;20044;-49
2021/11/16 04:08:52;;;;;;;64.85;28.00;;;6.20;87.30;;;;;;5072821;28;20029;-47
2021/11/16 04:11:17;;;;;;;53.67;25.70;;;6.30;87.00;;;;;;5073346;28;20399;-49
2021/11/16 04:13:45;;;;;;;60.08;27.48;;;6.40;86.70;;;;;;5073836;28;20464;-52
2021/11/16 04:16:11;;;;;;;52.78;25.05;;;6.40;86.60;;;;;;5073492;28;20017;-48
2021/11/16 04:18:37;;;;;;;54.55;27.23;;;6.40;86.70;;;;;;5073147;28;20032;-49
2021/11/16 04:21:03;;;;;;;53.70;26.42;;;6.40;86.60;;;;;;5073385;28;20043;-47
2021/11/16 04:23:29;;;;;;;52.88;26.23;;;6.40;86.70;;;;;;5073174;28;20027;-49
2021/11/16 04:25:56;;;;;;;57.30;26.83;;;6.50;86.80;;;;;;5073187;28;20021;-48
2021/11/16 04:28:23;;;;;;;54.45;24.75;;;6.40;86.70;;;;;;5073076;28;20031;-48
2021/11/16 04:30:50;;;;;;;52.00;24.08;;;6.40;86.60;;;;;;5073032;28;20074;-48
2021/11/16 04:33:18;;;;;;;54.53;25.92;;;6.30;86.80;;;;;;5073286;28;20039;-48
2021/11/16 04:35:44;;;;;;;52.10;25.00;;;6.30;86.80;;;;;;5071675;28;20043;-48
2021/11/16 04:38:12;;;;;;;52.88;27.02;;;6.30;87.10;;;;;;5073239;28;20094;-51
2021/11/16 04:40:41;;;;;;;56.42;27.15;;;6.30;87.20;;;;;;5073011;28;20468;-48
2021/11/16 04:43:15;;;;;;;54.97;25.83;;;6.40;86.90;;;;;;5072816;28;20029;-48
2021/11/16 04:45:42;;;;;;;56.60;28.40;;;6.40;86.30;;;;;;5073046;28;20028;-48
2021/11/16 04:48:17;;;;;;;58.30;27.42;;;6.30;86.70;;;;;;5073060;28;20468;-49
2021/11/16 05:04:16;;;;;;;55.53;27.48;;;6.40;86.20;;;;;;5072948;28;20503;-48
2021/11/16 05:06:43;;;;;;;59.42;25.30;;;6.40;86.40;;;;;;5072587;28;20052;-49
2021/11/16 05:09:09;;;;;;;56.08;25.58;;;6.30;86.60;;;;;;5072584;28;20016;-51
2021/11/16 05:11:34;;;;;;;55.78;26.92;;;6.40;86.60;;;;;;5072601;28;20078;-47
2021/11/16 05:14:01;;;;;;;56.67;26.00;;;6.30;86.40;;;;;;5072789;28;20024;-51
2021/11/16 05:16:26;;;;;;;61.97;27.40;;;6.30;86.70;;;;;;5072852;28;20036;-47
2021/11/16 05:18:53;;;;;;;65.53;31.77;;;6.30;87.00;;;;;;5072537;28;20028;-48
2021/11/16 05:21:19;;;;;;;59.10;27.15;;;6.30;87.20;;;;;;5075807;28;20024;-48
2021/11/16 05:23:54;;;;;;;56.45;24.95;;;6.30;87.20;;;;;;5074901;28;20365;-48
2021/11/16 05:26:22;;;;;;;58.05;27.20;;;6.20;87.10;;;;;;5076395;28;20541;-49
2021/11/16 05:28:48;;;;;;;59.25;27.85;;;6.30;87.00;;;;;;5076419;28;20024;-47
2021/11/16 05:31:15;;;;;;;53.80;25.92;;;6.30;86.90;;;;;;5076396;28;20043;-47
2021/11/16 05:33:42;;;;;;;56.50;26.23;;;6.40;87.00;;;;;;5076434;28;20071;-48
2021/11/16 05:36:08;;;;;;;54.78;26.98;;;6.50;86.60;;;;;;5076325;28;20081;-49
2021/11/16 05:38:37;;;;;;;60.38;29.38;;;6.40;86.70;;;;;;5076134;28;20028;-48
2021/11/16 05:41:06;;;;;;;57.88;27.80;;;6.40;86.60;;;;;;5076379;28;20031;-49
2021/11/16 05:43:33;;;;;;;56.40;27.52;;;6.40;86.60;;;;;;5076038;28;20066;-47
2021/11/16 05:46:00;;;;;;;62.83;28.65;;;6.30;86.50;;;;;;5076338;28;20048;-49
2021/11/16 05:48:36;;;;;;;64.45;30.90;;;6.30;87.00;;;;;;5076366;28;20028;-48
2021/11/16 05:51:02;;;;;;;62.55;28.15;;;6.40;86.70;;;;;;5076317;28;20469;-49
2021/11/16 05:53:27;;;;;;;65.70;32.08;;;6.40;86.60;;;;;;5076171;28;20503;-51
2021/11/16 05:55:53;;;;;;;55.17;25.40;;;6.50;86.60;;;;;;5076132;28;20028;-51
2021/11/16 05:58:20;;;;;;;64.75;29.02;;;6.40;86.30;;;;;;5075898;28;20389;-48
2021/11/16 06:00:47;;;;;;;69.50;31.02;;;6.40;86.50;;;;;;5075570;28;20025;-48
2021/11/16 06:03:13;;;;;;;62.20;28.23;;;6.40;86.80;;;;;;5075662;28;20016;-46
2021/11/16 06:05:39;;;;;;;62.15;29.85;;;6.40;86.60;;;;;;5075569;28;20055;-50
2021/11/16 06:08:06;;;;;;;58.97;27.58;;;6.40;86.70;;;;;;5076580;28;20100;-47
2021/11/16 06:10:32;;;;;;;58.75;28.38;;;6.30;86.70;;;;;;5075616;28;20029;-47
2021/11/16 06:12:58;;;;;;;61.42;28.75;;;6.30;86.80;;;;;;5075664;28;20028;-47
2021/11/16 06:15:23;;;;;;;60.25;28.80;;;6.30;87.10;;;;;;5075528;28;20078;-46
2021/11/16 06:17:49;;;;;;;59.22;26.88;;;6.30;87.00;;;;;;5076300;28;20421;-47
2021/11/16 06:20:19;;;;;;;57.10;27.50;;;6.30;87.10;;;;;;5075407;28;20039;-49
2021/11/16 06:22:45;;;;;;;58.70;28.30;;;6.30;87.00;;;;;;5075622;28;20025;-49
2021/11/16 06:25:11;;;;;;;58.35;25.40;;;6.30;87.40;;;;;;5075322;28;20020;-47
2021/11/16 06:27:37;;;;;;;59.83;29.27;;;6.30;87.30;;;;;;5075443;28;20074;-49
2021/11/16 06:30:05;;;;;;;70.50;30.75;;;6.30;87.20;;;;;;5075185;28;20427;-47
2021/11/16 06:32:31;;;;;;;69.45;31.13;;;6.30;87.60;;;;;;5074556;28;20039;-48
2021/11/16 06:34:57;;;;;;;65.00;27.90;;;6.30;87.40;;;;;;5075009;28;20028;-49
2021/11/16 06:37:23;;;;;;;61.85;30.55;;;6.30;87.70;;;;;;5075277;28;20021;-49
2021/11/16 06:39:49;;;;;;;60.90;27.90;;;6.40;87.20;;;;;;5075410;28;20017;-47
2021/11/16 06:42:15;;;;;;;63.05;28.55;;;6.40;87.00;;;;;;5074976;28;20020;-51
2021/11/16 06:44:42;;;;;;;76.55;34.90;;;6.30;87.30;;;;;;5075248;28;20028;-51
2021/11/16 06:47:13;;;;;;;61.17;27.92;;;6.30;87.80;;;;;;5074630;28;20035;-49
2021/11/16 06:49:40;;;;;;;69.05;30.52;;;6.20;87.90;;;;;;5074895;28;20063;-48
2021/11/16 06:52:07;;;;;;;60.72;29.08;;;6.30;88.20;;;;;;5075027;28;20029;-47
2021/11/16 06:54:33;;;;;;;62.38;27.73;;;6.30;87.90;;;;;;5074726;28;20028;-48
2021/11/16 06:56:58;;;;;;;69.30;29.42;;;6.30;87.80;;;;;;5074815;28;20031;-49
2021/11/16 06:59:25;;;;;;;68.97;30.52;;;6.20;87.80;;;;;;5074622;28;20047;-47
2021/11/16 07:01:53;;;;;;;66.18;29.50;;;6.20;88.40;;;;;;5074165;28;20510;-49
2021/11/16 07:04:18;;;;;;;76.57;31.55;;;6.20;88.70;;;;;;5074381;28;20560;-50
2021/11/16 07:06:46;;;;;;;65.53;31.13;;;6.20;88.70;;;;;;5074254;28;20072;-48
2021/11/16 07:09:14;;;;;;;69.03;29.55;;;6.30;88.30;;;;;;5074475;28;20082;-48
2021/11/16 07:11:51;;;;;;;67.70;32.10;;;6.20;88.50;;;;;;5074938;28;20020;-48
2021/11/16 07:14:20;;;;;;;71.55;30.15;;;6.20;88.80;;;;;;5074221;28;20082;-51
2021/11/16 07:16:55;;;;;;;68.57;29.45;;;6.20;88.90;;;;;;5074542;28;20098;-47
2021/11/16 07:19:39;;;;;;;72.50;30.27;;;6.20;88.70;;;;;;5074406;28;20036;-48
2021/11/16 07:22:09;;;;;;;66.05;29.80;;;6.30;88.60;;;;;;5073992;28;20111;-48
2021/11/16 07:24:42;;;;;;;75.73;32.13;;;6.10;89.20;;;;;;5074375;28;20461;-48
2021/11/16 07:27:08;;;;;;;68.15;27.75;;;6.20;89.50;;;;;;5074097;28;20414;-48
2021/11/16 07:30:04;;;;;;;70.95;31.35;;;6.20;89.70;;;;;;5072659;28;20025;-52
2021/11/16 07:32:44;;;;;;;67.38;30.20;;;6.20;89.70;;;;;;5065213;28;20082;-47
2021/11/16 07:35:10;;;;;;;78.13;29.55;;;6.10;89.90;;;;;;5073259;28;20043;-48
2021/11/16 07:37:38;;;;;;;72.75;30.67;;;6.10;90.10;;;;;;5073931;28;20033;-48
2021/11/16 07:40:11;;;;;;;73.72;32.22;;;6.10;90.60;;;;;;5074084;28;20025;-48
2021/11/16 07:42:53;;;;;;;74.30;31.33;;;5.90;90.60;;;;;;5073586;28;20035;-49
2021/11/16 07:45:37;;;;;;;74.38;33.00;;;5.90;91.00;;;;;;5073341;28;20029;-47
2021/11/16 07:48:06;;;;;;;74.57;31.98;;;5.80;91.30;;;;;;5073245;28;20145;-46
2021/11/16 07:50:31;;;;;;;78.25;30.20;;;5.90;91.50;;;;;;5073610;28;20104;-47
2021/11/16 07:53:12;;;;;;;63.65;27.88;;;5.90;91.70;;;;;;5073322;28;20528;-50
2021/11/16 07:55:40;;;;;;;67.07;29.95;;;5.90;91.60;;;;;;5073435;28;20107;-47
2021/11/16 07:58:09;;;;;;;68.50;27.50;;;5.80;91.60;;;;;;5073774;28;20057;-48
2021/11/16 08:00:39;;;;;;;66.40;28.30;;;5.80;91.80;;;;;;5073606;28;20119;-48
2021/11/16 08:03:11;;;;;;;84.10;30.80;;;5.80;92.00;;;;;;5073453;28;20439;-48
2021/11/16 08:08:20;;;;;;;73.57;29.58;;;5.80;92.10;;;;;;5073769;28;20021;-47
2021/11/16 08:10:49;;;;;;;;;;;5.70;92.30;;;;;;5073585;28;20094;-50
2021/11/16 08:13:19;;;;;;;59.53;23.08;;;5.70;92.70;;;;;;5073481;28;20321;-48
2021/11/16 08:15:45;;;;;;;71.55;27.27;;;5.60;92.70;;;;;;5075140;28;20017;-50
2021/11/16 08:18:15;;;;;;;64.45;24.30;;;5.70;93.00;;;;;;5074826;28;20073;-49
2021/11/16 08:20:42;;;;;;;62.55;26.20;;;5.70;92.90;;;;;;5072612;28;20028;-48
2021/11/16 08:23:08;;;;;;;55.05;25.30;;;5.70;93.00;;;;;;5073694;28;20433;-50
2021/11/16 08:25:36;;;;;;;58.78;22.80;;;5.60;93.00;;;;;;5072690;28;20055;-49
2021/11/16 08:28:04;;;;;;;66.03;26.63;;;5.60;93.00;;;;;;5072940;28;20092;-47
2021/11/16 08:30:35;;;;;;;62.75;21.70;;;5.70;93.10;;;;;;5072877;28;20574;-48
2021/11/16 08:33:02;;;;;;;54.63;24.48;;;5.70;93.10;;;;;;5071329;28;20064;-48
2021/11/16 08:35:28;;;;;;;64.22;24.80;;;5.60;93.10;;;;;;5072693;28;20052;-48
2021/11/16 08:38:00;;;;;;;60.90;24.45;;;5.60;93.20;;;;;;5071938;28;20489;-48
2021/11/16 08:40:29;;;;;;;56.67;21.45;;;5.60;93.40;;;;;;5072749;28;20427;-47
2021/11/16 08:43:13;;;;;;;53.55;22.10;;;5.70;93.30;;;;;;5072723;28;20492;-47
2021/11/16 08:45:44;;;;;;;48.20;22.25;;;5.70;93.10;;;;;;5072596;28;20043;-49
2021/11/16 08:48:22;;;;;;;45.08;19.52;;;5.70;93.10;;;;;;5072431;28;20548;-50
2021/11/16 08:50:49;;;;;;;50.35;21.88;;;5.60;93.00;;;;;;5071912;28;20048;-47
2021/11/16 08:53:22;;;;;;;50.97;23.25;;;5.50;93.10;;;;;;5071962;28;20395;-49
2021/11/16 08:55:48;;;;;;;42.45;20.50;;;5.50;93.10;;;;;;5071894;28;20029;-49
2021/11/16 08:58:15;;;;;;;55.65;23.55;;;5.60;93.00;;;;;;5072433;28;20025;-49
2021/11/16 09:00:51;;;;;;;52.40;22.73;;;5.70;93.00;;;;;;5072062;28;20119;-49
2021/11/16 09:03:30;;;;;;;54.22;22.60;;;5.60;92.70;;;;;;5072573;28;20048;-48
2021/11/16 09:06:01;;;;;;;66.80;23.73;;;5.70;92.80;;;;;;5071752;28;20052;-49
2021/11/16 09:08:34;;;;;;;50.83;22.80;;;5.60;92.70;;;;;;5072128;28;20039;-49
2021/11/16 09:11:12;;;;;;;50.40;22.58;;;5.60;92.90;;;;;;5072291;28;20044;-49
2021/11/16 09:13:39;;;;;;;60.17;24.50;;;5.60;93.10;;;;;;5072577;28;20031;-48
2021/11/16 09:16:28;;;;;;;53.55;23.20;;;5.80;93.10;;;;;;5070591;28;20458;-49
2021/11/16 09:18:53;;;;;;;65.22;24.20;;;5.60;92.90;;;;;;5071653;28;20021;-48
2021/11/16 09:21:45;;;;;;;57.67;23.77;;;5.70;92.90;;;;;;5071759;28;20039;-48
2021/11/16 09:24:13;;;;;;;51.42;21.27;;;5.80;92.90;;;;;;5067705;28;20461;-49
2021/11/16 09:29:24;;;;;;;53.50;20.85;;;5.70;92.50;;;;;;5072765;28;20029;-50
2021/11/16 09:32:01;;;;;;;55.53;22.65;;;5.70;92.50;;;;;;5071819;28;20029;-47
2021/11/16 09:34:35;;;;;;;53.53;20.77;;;5.70;92.50;;;;;;5071898;28;20040;-49
2021/11/16 09:37:07;;;;;;;55.25;22.98;;;5.80;92.60;;;;;;5070395;28;20028;-51
2021/11/16 09:39:46;;;;;;;57.10;23.05;;;5.80;92.60;;;;;;5071853;28;20028;-47
2021/11/16 09:42:15;;;;;;;58.38;23.00;;;5.80;92.40;;;;;;5071523;28;20516;-50
2021/11/16 09:44:47;;;;;;;58.65;22.20;;;5.80;92.20;;;;;;5073199;28;20008;-37
2021/11/16 09:47:17;;;;;;;50.95;20.95;;;5.80;92.30;;;;;;5071032;28;20016;-37
2021/11/16 09:49:57;;;;;;;51.28;21.58;;;5.80;92.40;;;;;;5072368;28;20165;-36
2021/11/16 09:53:13;;;;;;;62.13;22.55;;;5.80;92.50;;;;;;5071237;28;20024;-36
2021/11/16 09:55:39;;;;;;;50.70;20.48;;;5.80;92.60;;;;;;5052334;28;20040;-37
2021/11/16 09:58:07;;;;;;;40.13;19.58;;;5.90;92.50;;;;;;5069987;28;20099;-36
2021/11/16 10:00:36;;;;;;;55.13;19.98;;;5.90;92.50;;;;;;5070270;28;20032;-37
2021/11/16 10:03:06;;;;;;;56.10;25.55;;;6.10;92.30;;;;;;5070495;28;20028;-37
2021/11/16 10:05:41;;;;;;;45.53;18.73;;;6.20;91.50;;;;;;5071255;28;20153;-38
2021/11/16 10:08:08;;;;;;;42.38;20.88;;;6.20;91.30;;;;;;5074694;28;20025;-36
2021/11/16 10:10:38;;;;;;;42.75;19.48;;;6.20;90.70;;;;;;5076557;28;20032;-38
2021/11/16 10:13:17;;;;;;;36.75;17.83;;;6.10;91.00;;;;;;5075755;28;20499;-37
2021/11/16 10:15:46;;;;;;;46.22;19.55;;;6.10;90.90;;;;;;5075601;28;20025;-37
2021/11/16 10:18:14;;;;;;;41.03;18.27;;;6.10;91.20;;;;;;5075329;28;20059;-37
2021/11/16 10:20:43;;;;;;;43.83;19.70;;;6.20;91.00;;;;;;5074969;28;20103;-37
2021/11/16 10:23:11;;;;;;;46.13;21.33;;;6.30;90.90;;;;;;5074892;28;20028;-37
2021/11/16 10:25:40;;;;;;;42.70;19.30;;;6.30;90.80;;;;;;5074990;28;20455;-36
2021/11/16 10:28:15;;;;;;;46.95;21.92;;;6.30;90.50;;;;;;5074908;28;20012;-38
2021/11/16 10:30:42;;;;;;;47.38;22.58;;;6.40;90.10;;;;;;5074826;28;20032;-37
2021/11/16 10:33:17;;;;;;;49.20;20.65;;;6.50;90.00;;;;;;5074740;28;20433;-37
2021/11/16 10:36:02;;;;;;;42.88;19.13;;;6.50;89.90;;;;;;5074857;28;20081;-37
2021/11/16 10:38:34;;;;;;;45.42;20.15;;;6.60;89.40;;;;;;5073598;28;20035;-38
2021/11/16 10:41:04;;;;;;;48.40;22.27;;;6.40;89.60;;;;;;5075129;28;20024;-37
2021/11/16 10:43:47;;;;;;;44.80;20.08;;;6.40;89.90;;;;;;5057407;28;20040;-37
2021/11/16 10:46:13;;;;;;;45.60;21.20;;;6.40;89.90;;;;;;5075795;28;20084;-37
2021/11/16 10:48:40;;;;;;;47.20;21.52;;;6.30;90.10;;;;;;5074718;28;20096;-36
2021/11/16 10:51:08;;;;;;;49.63;22.83;;;6.30;90.20;;;;;;5075016;28;20028;-39
2021/11/16 10:53:34;;;;;;;43.17;19.40;;;6.30;90.60;;;;;;5072846;28;20115;-37
2021/11/16 10:56:02;;;;;;;46.17;19.67;;;6.40;90.50;;;;;;5074340;28;20047;-38
2021/11/16 10:58:40;;;;;;;42.75;21.27;;;6.50;90.20;;;;;;5072626;28;20066;-37
2021/11/16 11:01:12;;;;;;;47.08;22.42;;;6.50;89.70;;;;;;5074893;28;20103;-42
2021/11/16 11:03:44;;;;;;;40.70;19.63;;;6.50;89.90;;;;;;5074071;28;20024;-37
2021/11/16 11:06:14;;;;;;;48.85;22.38;;;6.30;90.10;;;;;;5073658;28;20396;-38
2021/11/16 11:09:00;;;;;;;40.77;20.60;;;6.40;90.10;;;;;;5074115;28;20024;-38
2021/11/16 11:11:32;;;;;;;41.60;19.33;;;6.50;90.20;;;;;;5074485;28;20293;-37
2021/11/16 11:14:02;;;;;;;47.40;21.65;;;6.40;89.70;;;;;;5074473;28;20127;-37
2021/11/16 11:16:29;;;;;;;39.22;18.80;;;6.40;89.90;;;;;;5072391;28;20172;-38
2021/11/16 11:18:55;;;;;;;42.10;20.23;;;6.50;90.40;;;;;;5073506;28;20122;-38
2021/11/16 11:21:56;;;;;;;40.80;21.88;;;6.50;90.20;;;;;;5074327;28;20021;-38
2021/11/16 11:24:26;;;;;;;;;;;6.40;90.00;;;;;;5074518;28;20024;-38
2021/11/16 11:26:59;;;;;;;40.50;19.92;;;6.50;89.80;;;;;;5073587;28;19905;-38
2021/11/16 11:29:28;;;;;;;39.85;18.77;;;6.60;89.90;;;;;;5073906;28;20070;-38
2021/11/16 11:32:03;;;;;;;39.85;19.70;;;6.60;89.50;;;;;;5073626;28;20032;-38
2021/11/16 11:34:39;;;;;;;32.35;18.55;;;6.80;89.20;;;;;;5073569;28;20025;-37
2021/11/16 11:37:08;;;;;;;41.88;18.15;;;6.60;89.40;;;;;;5073350;28;20031;-37
2021/11/16 11:39:34;;;;;;;34.45;17.95;;;6.70;89.70;;;;;;5073591;28;20113;-37
2021/11/16 11:42:01;;;;;;;42.42;18.83;;;6.60;89.20;;;;;;5073588;28;20174;-38
2021/11/16 11:44:29;;;;;;;45.42;21.40;;;6.40;89.60;;;;;;5073805;28;20066;-37
2021/11/16 11:46:59;;;;;;;42.25;20.30;;;6.30;90.00;;;;;;5073332;28;20025;-37
2021/11/16 11:49:27;;;;;;;40.05;19.98;;;6.30;90.50;;;;;;5073777;28;20456;-38
2021/11/16 11:51:55;;;;;;;38.28;20.42;;;6.60;90.60;;;;;;5071706;28;20028;-37
2021/11/16 11:54:21;;;;;;;42.40;21.08;;;6.60;90.40;;;;;;5073370;28;20468;-37
2021/11/16 11:56:48;;;;;;;44.35;19.05;;;6.60;89.70;;;;;;5073706;28;20035;-37
2021/11/16 11:59:14;;;;;;;33.72;18.15;;;6.50;89.90;;;;;;5073410;28;20051;-37
2021/11/16 12:01:43;;;;;;;37.72;18.45;;;6.60;90.00;;;;;;5072996;28;20460;-37
2021/11/16 12:04:12;;;;;;;35.92;16.27;;;6.50;89.40;;;;;;5071542;28;20381;-36
2021/11/16 12:06:39;;;;;;;40.35;17.67;;;6.50;89.70;;;;;;5071192;28;20539;-37
2021/11/16 12:09:06;;;;;;;35.58;18.85;;;6.40;89.90;;;;;;5071538;28;20033;-38
2021/11/16 12:11:32;;;;;;;41.90;20.58;;;6.40;90.00;;;;;;5072660;28;20113;-38
2021/11/16 12:14:04;;;;;;;45.22;20.17;;;6.40;90.30;;;;;;5072744;28;20465;-38
2021/11/16 12:16:45;;;;;;;39.33;19.42;;;6.50;90.30;;;;;;5072867;28;20025;-37
2021/11/16 12:19:12;;;;;;;37.22;18.13;;;6.50;90.10;;;;;;5072434;28;20032;-37
2021/11/16 12:21:41;;;;;;;41.60;19.02;;;6.50;89.70;;;;;;5072447;28;20035;-37
2021/11/16 12:24:29;;;;;;;46.20;21.17;;;6.50;89.70;;;;;;5072621;28;20028;-36
2021/11/16 12:27:03;;;;;;;50.20;22.48;;;6.30;89.50;;;;;;5072650;28;20421;-37
2021/11/16 12:29:32;;;;;;;38.72;19.65;;;6.30;89.90;;;;;;5071720;28;20377;-38
2021/11/16 12:32:12;;;;;;;40.72;21.48;;;6.30;90.10;;;;;;5072318;28;20025;-38
2021/11/16 12:34:42;;;;;;;39.27;21.97;;;6.30;90.20;;;;;;5072375;28;20496;-38
2021/11/16 12:37:11;;;;;;;47.38;20.77;;;6.30;90.30;;;;;;5072547;28;20738;-37
2021/11/16 12:39:54;;;;;;;50.58;23.77;;;6.30;90.30;;;;;;5072613;28;20170;-37
2021/11/16 12:42:20;;;;;;;61.28;25.38;;;6.30;90.50;;;;;;5072595;28;20029;-37
2021/11/16 12:44:50;;;;;;;46.58;23.50;;;6.30;90.70;;;;;;5072556;28;20487;-39
2021/11/16 12:47:16;;;;;;;;;;;6.20;90.80;;;;;;5073187;28;20360;-37
2021/11/16 12:49:44;;;;;;;50.25;23.13;;;6.30;90.80;;;;;;5074286;28;19995;-38
2021/11/16 12:52:16;;;;;;;45.53;23.00;;;6.30;90.60;;;;;;5072695;28;20035;-37
2021/11/16 12:54:42;;;;;;;51.97;22.17;;;6.20;90.80;;;;;;5072814;28;20025;-37
2021/11/16 12:57:10;;;;;;;51.20;23.70;;;6.20;91.10;;;;;;5074053;28;20078;-38
2021/11/16 12:59:45;;;;;;;43.63;21.23;;;6.30;91.00;;;;;;5072891;28;20405;-39
2021/11/16 13:02:46;;;;;;;58.97;23.73;;;6.30;91.00;;;;;;5072655;28;20103;-38
2021/11/16 13:05:25;;;;;;;53.88;23.33;;;6.40;90.90;;;;;;5072269;28;20029;-37
2021/11/16 13:07:56;;;;;;;51.83;23.52;;;6.40;90.60;;;;;;5072700;28;20036;-37